Decoded Metar for KPDK (PEACHTREE/DEKALB in GA, USA) (IATA:PDK) | Meteo·Mobile Aviation Weather
aviador You're here:

KPDK Decoded Metar

PEACHTREE/DEKALB in GA, USA
Report Time2019-03-21 18:53:00
UTC Time2019-03-22 09:56:41
Flight Rules Old
Wind310° at 11 Gusting to 19 kt
W.Decomp.*RWY 34: 10.0 kt HW 4.6 kt LCW
RWY 27: 7.8 kt HW 7.8 kt RCW
RWY 03: 2.8 kt HW 10.6 kt LCW
W.Rank310° ranks 1
Current wind is above 310° avg. (8.2)
Visibility9999 m
Phenomena:N/A
Clouds:Broken 060 Hf
Overcast 070 Hf
Expected CloudBase > 3,600 ft AGL from Temp-Dew spread
Ceiling6,000 ft
Temp13°C (ISA -0)
Dew Point04°C (55% RH)
AAT7.8°C
QNH1013 hPa
Density Alt1,102 ft
Elevation991 ft
Report Wrong Elevation
Raw Report
METAR KPDK 211853Z 31011G19KT 8SM BKN060 OVC070 13/04 A2991 RMK AO2
PK WND 27031/1815 RAB17E28 SLP133 P0000 T01280044=

Extra information for KPDK:More info

Metar Taf Metar & Taf Last 4 Metars F.Rules Stats Wind Profile Meteogram Temp Stats Airport Information Weather charts Add Link Nearby VenuesMetar ALERT Operation Metar Decoded Social comments

AIRNAV info for KPDK